sensor_id;sensor_type;location;lat;lon;timestamp;P1;durP1;ratioP1;P2;durP2;ratioP2
32319;SDS011;19080;51.750;5.888;2023-03-09T00:01:25;24.65;;;18.35;;
32319;SDS011;19080;51.750;5.888;2023-03-09T00:03:54;26.85;;;18.45;;
32319;SDS011;19080;51.750;5.888;2023-03-09T00:06:21;27.05;;;19.35;;
32319;SDS011;19080;51.750;5.888;2023-03-09T00:08:48;26.88;;;19.23;;
32319;SDS011;19080;51.750;5.888;2023-03-09T00:11:16;27.90;;;18.67;;
32319;SDS011;19080;51.750;5.888;2023-03-09T00:13:44;29.98;;;20.60;;
32319;SDS011;19080;51.750;5.888;2023-03-09T00:16:13;27.42;;;19.67;;
32319;SDS011;19080;51.750;5.888;2023-03-09T00:18:42;28.15;;;19.98;;
32319;SDS011;19080;51.750;5.888;2023-03-09T00:21:10;28.88;;;20.60;;
32319;SDS011;19080;51.750;5.888;2023-03-09T00:24:08;33.13;;;21.23;;
32319;SDS011;19080;51.750;5.888;2023-03-09T00:26:41;29.42;;;21.15;;
32319;SDS011;19080;51.750;5.888;2023-03-09T00:29:13;32.00;;;21.48;;
32319;SDS011;19080;51.750;5.888;2023-03-09T00:31:40;32.53;;;21.52;;
32319;SDS011;19080;51.750;5.888;2023-03-09T00:34:07;34.10;;;21.92;;
32319;SDS011;19080;51.750;5.888;2023-03-09T00:36:35;30.67;;;20.85;;
32319;SDS011;19080;51.750;5.888;2023-03-09T00:39:02;32.28;;;21.67;;
32319;SDS011;19080;51.750;5.888;2023-03-09T00:41:30;33.13;;;22.08;;
32319;SDS011;19080;51.750;5.888;2023-03-09T00:43:58;33.70;;;22.13;;
32319;SDS011;19080;51.750;5.888;2023-03-09T00:46:26;33.03;;;21.75;;
32319;SDS011;19080;51.750;5.888;2023-03-09T00:48:54;31.08;;;20.98;;
32319;SDS011;19080;51.750;5.888;2023-03-09T00:51:20;30.98;;;22.48;;
32319;SDS011;19080;51.750;5.888;2023-03-09T00:53:47;30.83;;;20.63;;
32319;SDS011;19080;51.750;5.888;2023-03-09T00:56:15;37.55;;;25.17;;
32319;SDS011;19080;51.750;5.888;2023-03-09T00:58:44;30.63;;;21.13;;
32319;SDS011;19080;51.750;5.888;2023-03-09T01:01:12;31.63;;;21.92;;
32319;SDS011;19080;51.750;5.888;2023-03-09T01:03:41;34.65;;;23.05;;
32319;SDS011;19080;51.750;5.888;2023-03-09T01:06:08;34.92;;;22.95;;
32319;SDS011;19080;51.750;5.888;2023-03-09T01:08:35;31.33;;;22.25;;
32319;SDS011;19080;51.750;5.888;2023-03-09T01:11:06;34.03;;;24.35;;
32319;SDS011;19080;51.750;5.888;2023-03-09T01:13:34;28.55;;;17.98;;
32319;SDS011;19080;51.750;5.888;2023-03-09T01:16:01;37.40;;;23.98;;
32319;SDS011;19080;51.750;5.888;2023-03-09T01:18:29;34.30;;;22.45;;
32319;SDS011;19080;51.750;5.888;2023-03-09T01:20:57;36.10;;;24.50;;
32319;SDS011;19080;51.750;5.888;2023-03-09T01:23:24;36.92;;;24.48;;
32319;SDS011;19080;51.750;5.888;2023-03-09T01:25:52;37.00;;;25.15;;
32319;SDS011;19080;51.750;5.888;2023-03-09T01:28:19;36.60;;;23.75;;
32319;SDS011;19080;51.750;5.888;2023-03-09T01:30:45;35.80;;;24.17;;
32319;SDS011;19080;51.750;5.888;2023-03-09T01:33:12;38.85;;;25.67;;
32319;SDS011;19080;51.750;5.888;2023-03-09T01:35:39;38.28;;;25.85;;
32319;SDS011;19080;51.750;5.888;2023-03-09T01:38:07;36.95;;;24.90;;
32319;SDS011;19080;51.750;5.888;2023-03-09T01:40:35;37.88;;;25.55;;
32319;SDS011;19080;51.750;5.888;2023-03-09T01:48:13;40.20;;;25.65;;
32319;SDS011;19080;51.750;5.888;2023-03-09T01:50:40;38.53;;;25.65;;
32319;SDS011;19080;51.750;5.888;2023-03-09T01:53:11;42.13;;;27.25;;
32319;SDS011;19080;51.750;5.888;2023-03-09T01:55:42;40.85;;;26.98;;
32319;SDS011;19080;51.750;5.888;2023-03-09T02:00:42;41.20;;;25.48;;
32319;SDS011;19080;51.750;5.888;2023-03-09T02:03:18;43.25;;;26.48;;
32319;SDS011;19080;51.750;5.888;2023-03-09T02:05:51;41.97;;;26.70;;
32319;SDS011;19080;51.750;5.888;2023-03-09T02:09:08;41.65;;;27.00;;
32319;SDS011;19080;51.750;5.888;2023-03-09T02:11:42;36.70;;;23.10;;
32319;SDS011;19080;51.750;5.888;2023-03-09T02:14:09;43.72;;;27.17;;
32319;SDS011;19080;51.750;5.888;2023-03-09T02:16:36;43.90;;;28.25;;
32319;SDS011;19080;51.750;5.888;2023-03-09T02:19:03;42.65;;;26.10;;
32319;SDS011;19080;51.750;5.888;2023-03-09T02:21:36;45.35;;;28.40;;
32319;SDS011;19080;51.750;5.888;2023-03-09T02:29:48;44.50;;;26.73;;
32319;SDS011;19080;51.750;5.888;2023-03-09T02:32:16;43.53;;;27.65;;
32319;SDS011;19080;51.750;5.888;2023-03-09T02:34:44;41.13;;;26.42;;
32319;SDS011;19080;51.750;5.888;2023-03-09T02:39:55;50.40;;;29.27;;
32319;SDS011;19080;51.750;5.888;2023-03-09T02:42:23;45.97;;;28.42;;
32319;SDS011;19080;51.750;5.888;2023-03-09T02:44:52;44.17;;;27.10;;
32319;SDS011;19080;51.750;5.888;2023-03-09T02:47:20;44.17;;;28.33;;
32319;SDS011;19080;51.750;5.888;2023-03-09T02:49:51;48.00;;;30.65;;
32319;SDS011;19080;51.750;5.888;2023-03-09T02:52:18;53.17;;;32.00;;
32319;SDS011;19080;51.750;5.888;2023-03-09T02:54:45;55.53;;;33.85;;
32319;SDS011;19080;51.750;5.888;2023-03-09T02:57:12;52.13;;;32.97;;
32319;SDS011;19080;51.750;5.888;2023-03-09T02:59:39;55.10;;;34.15;;
32319;SDS011;19080;51.750;5.888;2023-03-09T03:02:07;54.80;;;33.35;;
32319;SDS011;19080;51.750;5.888;2023-03-09T03:04:33;53.72;;;33.83;;
32319;SDS011;19080;51.750;5.888;2023-03-09T03:07:01;52.83;;;31.85;;
32319;SDS011;19080;51.750;5.888;2023-03-09T03:09:29;56.30;;;33.78;;
32319;SDS011;19080;51.750;5.888;2023-03-09T03:11:57;53.75;;;33.50;;
32319;SDS011;19080;51.750;5.888;2023-03-09T03:14:25;60.65;;;36.05;;
32319;SDS011;19080;51.750;5.888;2023-03-09T03:16:52;62.00;;;36.28;;
32319;SDS011;19080;51.750;5.888;2023-03-09T03:19:19;56.88;;;34.20;;
32319;SDS011;19080;51.750;5.888;2023-03-09T03:21:47;59.78;;;36.13;;
32319;SDS011;19080;51.750;5.888;2023-03-09T03:24:15;52.28;;;33.60;;
32319;SDS011;19080;51.750;5.888;2023-03-09T03:26:43;55.78;;;34.22;;
32319;SDS011;19080;51.750;5.888;2023-03-09T03:29:13;52.70;;;33.70;;
32319;SDS011;19080;51.750;5.888;2023-03-09T03:31:40;53.20;;;33.28;;
32319;SDS011;19080;51.750;5.888;2023-03-09T03:34:07;57.53;;;33.78;;
32319;SDS011;19080;51.750;5.888;2023-03-09T03:36:38;51.08;;;31.73;;
32319;SDS011;19080;51.750;5.888;2023-03-09T03:39:05;50.47;;;31.83;;
32319;SDS011;19080;51.750;5.888;2023-03-09T03:41:32;51.85;;;30.50;;
32319;SDS011;19080;51.750;5.888;2023-03-09T03:44:03;53.53;;;31.63;;
32319;SDS011;19080;51.750;5.888;2023-03-09T03:46:30;46.45;;;27.48;;
32319;SDS011;19080;51.750;5.888;2023-03-09T03:48:57;51.45;;;30.85;;
32319;SDS011;19080;51.750;5.888;2023-03-09T03:51:25;48.28;;;30.85;;
32319;SDS011;19080;51.750;5.888;2023-03-09T03:53:54;51.00;;;30.95;;
32319;SDS011;19080;51.750;5.888;2023-03-09T03:56:21;45.53;;;28.80;;
32319;SDS011;19080;51.750;5.888;2023-03-09T03:58:49;47.47;;;29.60;;
32319;SDS011;19080;51.750;5.888;2023-03-09T04:01:17;45.83;;;29.23;;
32319;SDS011;19080;51.750;5.888;2023-03-09T04:03:48;47.47;;;28.30;;
32319;SDS011;19080;51.750;5.888;2023-03-09T04:06:15;42.50;;;27.13;;
32319;SDS011;19080;51.750;5.888;2023-03-09T04:08:44;45.55;;;28.17;;
32319;SDS011;19080;51.750;5.888;2023-03-09T04:11:11;42.75;;;27.05;;
32319;SDS011;19080;51.750;5.888;2023-03-09T04:13:41;45.53;;;27.60;;
32319;SDS011;19080;51.750;5.888;2023-03-09T04:16:08;45.35;;;28.45;;
32319;SDS011;19080;51.750;5.888;2023-03-09T04:18:35;47.60;;;28.85;;
32319;SDS011;19080;51.750;5.888;2023-03-09T04:21:02;44.63;;;27.55;;
32319;SDS011;19080;51.750;5.888;2023-03-09T04:23:28;44.03;;;27.73;;
32319;SDS011;19080;51.750;5.888;2023-03-09T04:26:01;48.35;;;27.25;;
32319;SDS011;19080;51.750;5.888;2023-03-09T04:28:38;40.83;;;25.23;;
32319;SDS011;19080;51.750;5.888;2023-03-09T04:31:08;47.63;;;28.60;;
32319;SDS011;19080;51.750;5.888;2023-03-09T04:33:35;48.72;;;27.30;;
32319;SDS011;19080;51.750;5.888;2023-03-09T04:36:03;40.50;;;24.73;;
32319;SDS011;19080;51.750;5.888;2023-03-09T04:38:33;44.53;;;26.98;;
32319;SDS011;19080;51.750;5.888;2023-03-09T04:41:00;50.50;;;28.45;;
32319;SDS011;19080;51.750;5.888;2023-03-09T04:43:27;45.95;;;27.67;;
32319;SDS011;19080;51.750;5.888;2023-03-09T04:45:54;43.53;;;26.50;;
32319;SDS011;19080;51.750;5.888;2023-03-09T04:48:21;45.75;;;27.17;;
32319;SDS011;19080;51.750;5.888;2023-03-09T04:50:48;45.45;;;26.67;;
32319;SDS011;19080;51.750;5.888;2023-03-09T04:53:15;44.92;;;26.25;;
32319;SDS011;19080;51.750;5.888;2023-03-09T04:55:42;45.92;;;26.83;;
32319;SDS011;19080;51.750;5.888;2023-03-09T04:58:12;43.58;;;27.05;;
32319;SDS011;19080;51.750;5.888;2023-03-09T05:00:39;45.65;;;26.58;;
32319;SDS011;19080;51.750;5.888;2023-03-09T05:03:08;47.95;;;28.08;;
32319;SDS011;19080;51.750;5.888;2023-03-09T05:05:40;44.50;;;26.45;;
32319;SDS011;19080;51.750;5.888;2023-03-09T05:08:07;42.47;;;24.20;;
32319;SDS011;19080;51.750;5.888;2023-03-09T05:10:33;45.28;;;27.15;;
32319;SDS011;19080;51.750;5.888;2023-03-09T05:13:00;45.22;;;26.63;;
32319;SDS011;19080;51.750;5.888;2023-03-09T05:15:29;43.08;;;26.60;;
32319;SDS011;19080;51.750;5.888;2023-03-09T05:17:57;44.33;;;25.85;;
32319;SDS011;19080;51.750;5.888;2023-03-09T05:20:26;46.45;;;27.65;;
32319;SDS011;19080;51.750;5.888;2023-03-09T05:22:59;41.67;;;24.52;;
32319;SDS011;19080;51.750;5.888;2023-03-09T05:25:27;43.20;;;25.33;;
32319;SDS011;19080;51.750;5.888;2023-03-09T05:27:54;42.00;;;24.67;;
32319;SDS011;19080;51.750;5.888;2023-03-09T05:30:23;42.42;;;25.27;;
32319;SDS011;19080;51.750;5.888;2023-03-09T05:32:50;44.33;;;26.20;;
32319;SDS011;19080;51.750;5.888;2023-03-09T05:35:19;41.85;;;25.27;;
32319;SDS011;19080;51.750;5.888;2023-03-09T05:37:46;42.20;;;25.58;;
32319;SDS011;19080;51.750;5.888;2023-03-09T05:40:17;40.83;;;24.05;;
32319;SDS011;19080;51.750;5.888;2023-03-09T05:42:50;42.45;;;25.02;;
32319;SDS011;19080;51.750;5.888;2023-03-09T05:45:16;43.72;;;25.42;;
32319;SDS011;19080;51.750;5.888;2023-03-09T05:47:43;40.65;;;25.35;;
32319;SDS011;19080;51.750;5.888;2023-03-09T05:50:10;44.75;;;25.60;;
32319;SDS011;19080;51.750;5.888;2023-03-09T05:52:37;38.95;;;24.90;;
32319;SDS011;19080;51.750;5.888;2023-03-09T05:55:04;41.13;;;24.67;;
32319;SDS011;19080;51.750;5.888;2023-03-09T05:57:33;41.75;;;25.52;;
32319;SDS011;19080;51.750;5.888;2023-03-09T06:00:00;42.97;;;26.42;;
32319;SDS011;19080;51.750;5.888;2023-03-09T06:02:38;44.33;;;26.08;;
32319;SDS011;19080;51.750;5.888;2023-03-09T06:05:08;40.72;;;23.90;;
32319;SDS011;19080;51.750;5.888;2023-03-09T06:07:35;40.95;;;24.17;;
32319;SDS011;19080;51.750;5.888;2023-03-09T06:10:01;38.72;;;23.55;;
32319;SDS011;19080;51.750;5.888;2023-03-09T06:12:28;43.22;;;25.85;;
32319;SDS011;19080;51.750;5.888;2023-03-09T06:14:57;45.03;;;26.17;;
32319;SDS011;19080;51.750;5.888;2023-03-09T06:17:26;42.85;;;25.27;;
32319;SDS011;19080;51.750;5.888;2023-03-09T06:19:53;40.65;;;23.80;;
32319;SDS011;19080;51.750;5.888;2023-03-09T06:22:21;40.33;;;24.73;;
32319;SDS011;19080;51.750;5.888;2023-03-09T06:24:49;45.50;;;26.80;;
32319;SDS011;19080;51.750;5.888;2023-03-09T06:27:16;38.33;;;23.13;;
32319;SDS011;19080;51.750;5.888;2023-03-09T06:29:43;39.25;;;24.30;;
32319;SDS011;19080;51.750;5.888;2023-03-09T06:32:09;41.55;;;24.65;;
32319;SDS011;19080;51.750;5.888;2023-03-09T06:34:38;43.28;;;26.23;;
32319;SDS011;19080;51.750;5.888;2023-03-09T06:37:08;39.20;;;25.02;;
32319;SDS011;19080;51.750;5.888;2023-03-09T06:39:34;40.83;;;24.58;;
32319;SDS011;19080;51.750;5.888;2023-03-09T06:42:01;43.15;;;26.58;;
32319;SDS011;19080;51.750;5.888;2023-03-09T06:44:41;39.72;;;24.08;;
32319;SDS011;19080;51.750;5.888;2023-03-09T06:47:09;38.88;;;24.27;;
32319;SDS011;19080;51.750;5.888;2023-03-09T06:49:38;37.60;;;22.88;;
32319;SDS011;19080;51.750;5.888;2023-03-09T06:52:09;39.92;;;24.58;;
32319;SDS011;19080;51.750;5.888;2023-03-09T06:54:36;40.50;;;25.00;;
32319;SDS011;19080;51.750;5.888;2023-03-09T06:57:10;36.65;;;23.60;;
32319;SDS011;19080;51.750;5.888;2023-03-09T06:59:38;43.20;;;27.45;;
32319;SDS011;19080;51.750;5.888;2023-03-09T07:02:05;39.17;;;24.63;;
32319;SDS011;19080;51.750;5.888;2023-03-09T07:04:32;41.50;;;24.95;;
32319;SDS011;19080;51.750;5.888;2023-03-09T07:06:58;43.15;;;27.67;;
32319;SDS011;19080;51.750;5.888;2023-03-09T07:09:25;37.70;;;23.80;;
32319;SDS011;19080;51.750;5.888;2023-03-09T07:11:51;36.60;;;23.35;;
32319;SDS011;19080;51.750;5.888;2023-03-09T07:14:18;36.28;;;22.92;;
32319;SDS011;19080;51.750;5.888;2023-03-09T07:16:50;40.95;;;24.90;;
32319;SDS011;19080;51.750;5.888;2023-03-09T07:19:17;38.58;;;24.10;;
32319;SDS011;19080;51.750;5.888;2023-03-09T07:21:44;42.45;;;26.75;;
32319;SDS011;19080;51.750;5.888;2023-03-09T07:24:10;40.75;;;25.38;;
32319;SDS011;19080;51.750;5.888;2023-03-09T07:26:37;39.80;;;25.02;;
32319;SDS011;19080;51.750;5.888;2023-03-09T07:29:03;41.15;;;25.83;;
32319;SDS011;19080;51.750;5.888;2023-03-09T07:31:30;37.83;;;24.25;;
32319;SDS011;19080;51.750;5.888;2023-03-09T07:33:57;40.30;;;25.08;;
32319;SDS011;19080;51.750;5.888;2023-03-09T07:36:24;41.45;;;25.75;;
32319;SDS011;19080;51.750;5.888;2023-03-09T07:38:51;39.45;;;24.73;;
32319;SDS011;19080;51.750;5.888;2023-03-09T07:41:18;42.25;;;26.38;;
32319;SDS011;19080;51.750;5.888;2023-03-09T07:43:45;40.85;;;25.08;;
32319;SDS011;19080;51.750;5.888;2023-03-09T07:46:19;43.90;;;25.70;;
32319;SDS011;19080;51.750;5.888;2023-03-09T07:48:46;38.88;;;25.75;;
32319;SDS011;19080;51.750;5.888;2023-03-09T07:51:12;45.78;;;27.95;;
32319;SDS011;19080;51.750;5.888;2023-03-09T07:53:39;44.00;;;28.38;;
32319;SDS011;19080;51.750;5.888;2023-03-09T07:56:06;47.67;;;29.98;;
32319;SDS011;19080;51.750;5.888;2023-03-09T07:58:34;41.35;;;25.13;;
32319;SDS011;19080;51.750;5.888;2023-03-09T08:01:03;39.17;;;24.17;;
32319;SDS011;19080;51.750;5.888;2023-03-09T08:03:30;40.40;;;25.80;;
32319;SDS011;19080;51.750;5.888;2023-03-09T08:05:56;39.92;;;25.52;;
32319;SDS011;19080;51.750;5.888;2023-03-09T08:08:24;40.20;;;26.35;;
32319;SDS011;19080;51.750;5.888;2023-03-09T08:10:54;44.13;;;26.73;;
32319;SDS011;19080;51.750;5.888;2023-03-09T08:13:21;41.22;;;25.88;;
32319;SDS011;19080;51.750;5.888;2023-03-09T08:15:48;46.47;;;29.13;;
32319;SDS011;19080;51.750;5.888;2023-03-09T08:18:15;42.63;;;26.95;;
32319;SDS011;19080;51.750;5.888;2023-03-09T08:20:43;42.17;;;27.13;;
32319;SDS011;19080;51.750;5.888;2023-03-09T08:23:10;44.13;;;27.85;;
32319;SDS011;19080;51.750;5.888;2023-03-09T08:25:37;43.50;;;28.30;;
32319;SDS011;19080;51.750;5.888;2023-03-09T08:28:04;38.85;;;26.65;;
32319;SDS011;19080;51.750;5.888;2023-03-09T08:30:30;42.22;;;27.17;;
32319;SDS011;19080;51.750;5.888;2023-03-09T08:32:57;42.33;;;28.48;;
32319;SDS011;19080;51.750;5.888;2023-03-09T08:35:27;42.40;;;26.60;;
32319;SDS011;19080;51.750;5.888;2023-03-09T08:37:56;40.15;;;26.42;;
32319;SDS011;19080;51.750;5.888;2023-03-09T08:40:23;41.15;;;25.67;;
32319;SDS011;19080;51.750;5.888;2023-03-09T08:42:49;40.17;;;26.20;;
32319;SDS011;19080;51.750;5.888;2023-03-09T08:45:16;41.35;;;25.38;;
32319;SDS011;19080;51.750;5.888;2023-03-09T08:47:43;40.38;;;26.38;;
32319;SDS011;19080;51.750;5.888;2023-03-09T08:50:10;41.20;;;27.20;;
32319;SDS011;19080;51.750;5.888;2023-03-09T08:52:37;43.33;;;26.77;;
32319;SDS011;19080;51.750;5.888;2023-03-09T08:55:06;39.42;;;25.95;;
32319;SDS011;19080;51.750;5.888;2023-03-09T08:57:34;42.80;;;26.98;;
32319;SDS011;19080;51.750;5.888;2023-03-09T09:00:01;38.92;;;25.77;;
32319;SDS011;19080;51.750;5.888;2023-03-09T09:02:27;36.33;;;25.10;;
32319;SDS011;19080;51.750;5.888;2023-03-09T09:04:54;38.65;;;25.83;;
32319;SDS011;19080;51.750;5.888;2023-03-09T09:07:21;39.08;;;26.30;;
32319;SDS011;19080;51.750;5.888;2023-03-09T09:09:47;37.70;;;25.52;;
32319;SDS011;19080;51.750;5.888;2023-03-09T09:12:14;36.33;;;24.13;;
32319;SDS011;19080;51.750;5.888;2023-03-09T09:14:41;39.70;;;26.23;;
32319;SDS011;19080;51.750;5.888;2023-03-09T09:17:08;38.47;;;25.83;;
32319;SDS011;19080;51.750;5.888;2023-03-09T09:19:38;39.83;;;26.02;;
32319;SDS011;19080;51.750;5.888;2023-03-09T09:22:07;38.85;;;25.98;;
32319;SDS011;19080;51.750;5.888;2023-03-09T09:24:35;37.17;;;24.73;;
32319;SDS011;19080;51.750;5.888;2023-03-09T09:27:06;36.05;;;24.50;;
32319;SDS011;19080;51.750;5.888;2023-03-09T09:29:34;36.78;;;24.38;;
32319;SDS011;19080;51.750;5.888;2023-03-09T09:32:01;34.38;;;24.25;;
32319;SDS011;19080;51.750;5.888;2023-03-09T09:34:30;36.33;;;24.52;;
32319;SDS011;19080;51.750;5.888;2023-03-09T09:36:58;34.88;;;23.67;;
32319;SDS011;19080;51.750;5.888;2023-03-09T09:39:29;35.03;;;23.65;;
32319;SDS011;19080;51.750;5.888;2023-03-09T09:42:06;37.42;;;25.80;;
32319;SDS011;19080;51.750;5.888;2023-03-09T09:44:40;33.25;;;22.77;;
32319;SDS011;19080;51.750;5.888;2023-03-09T09:47:12;35.90;;;24.02;;
32319;SDS011;19080;51.750;5.888;2023-03-09T09:49:43;34.17;;;22.90;;
32319;SDS011;19080;51.750;5.888;2023-03-09T09:52:20;36.05;;;24.17;;
32319;SDS011;19080;51.750;5.888;2023-03-09T10:00:13;35.25;;;23.80;;
32319;SDS011;19080;51.750;5.888;2023-03-09T10:02:50;37.78;;;24.83;;
32319;SDS011;19080;51.750;5.888;2023-03-09T10:10:52;38.03;;;23.10;;
32319;SDS011;19080;51.750;5.888;2023-03-09T10:13:23;36.15;;;24.77;;
32319;SDS011;19080;51.750;5.888;2023-03-09T10:15:56;34.00;;;23.27;;
32319;SDS011;19080;51.750;5.888;2023-03-09T10:18:36;36.45;;;24.55;;
32319;SDS011;19080;51.750;5.888;2023-03-09T10:21:08;36.45;;;23.50;;
32319;SDS011;19080;51.750;5.888;2023-03-09T10:23:42;38.05;;;24.48;;
32319;SDS011;19080;51.750;5.888;2023-03-09T10:28:45;38.30;;;23.77;;
32319;SDS011;19080;51.750;5.888;2023-03-09T10:31:18;36.28;;;24.35;;
32319;SDS011;19080;51.750;5.888;2023-03-09T10:33:53;34.80;;;22.98;;
32319;SDS011;19080;51.750;5.888;2023-03-09T10:36:36;39.45;;;24.05;;
32319;SDS011;19080;51.750;5.888;2023-03-09T10:39:11;35.22;;;23.25;;
32319;SDS011;19080;51.750;5.888;2023-03-09T10:41:41;37.60;;;24.70;;
32319;SDS011;19080;51.750;5.888;2023-03-09T10:44:08;37.03;;;23.67;;
32319;SDS011;19080;51.750;5.888;2023-03-09T10:46:59;34.22;;;22.38;;
32319;SDS011;19080;51.750;5.888;2023-03-09T10:49:29;38.58;;;24.25;;
32319;SDS011;19080;51.750;5.888;2023-03-09T10:52:06;37.33;;;24.80;;
32319;SDS011;19080;51.750;5.888;2023-03-09T10:54:44;34.67;;;23.70;;
32319;SDS011;19080;51.750;5.888;2023-03-09T10:57:20;35.88;;;24.60;;
32319;SDS011;19080;51.750;5.888;2023-03-09T10:59:54;36.85;;;24.55;;
32319;SDS011;19080;51.750;5.888;2023-03-09T11:02:28;38.70;;;25.80;;
32319;SDS011;19080;51.750;5.888;2023-03-09T11:04:56;35.03;;;24.52;;
32319;SDS011;19080;51.750;5.888;2023-03-09T11:07:28;36.05;;;24.80;;
32319;SDS011;19080;51.750;5.888;2023-03-09T11:09:55;36.88;;;24.90;;
32319;SDS011;19080;51.750;5.888;2023-03-09T11:14:49;36.95;;;24.75;;
32319;SDS011;19080;51.750;5.888;2023-03-09T11:17:25;32.95;;;22.88;;
32319;SDS011;19080;51.750;5.888;2023-03-09T11:20:09;35.35;;;23.75;;
32319;SDS011;19080;51.750;5.888;2023-03-09T11:22:39;36.22;;;24.15;;
32319;SDS011;19080;51.750;5.888;2023-03-09T11:25:14;32.75;;;21.65;;
32319;SDS011;19080;51.750;5.888;2023-03-09T11:27:48;31.90;;;22.02;;
32319;SDS011;19080;51.750;5.888;2023-03-09T11:30:19;31.70;;;21.25;;
32319;SDS011;19080;51.750;5.888;2023-03-09T11:32:51;31.45;;;21.77;;
32319;SDS011;19080;51.750;5.888;2023-03-09T11:35:19;32.08;;;22.02;;
32319;SDS011;19080;51.750;5.888;2023-03-09T11:37:51;34.25;;;22.45;;
32319;SDS011;19080;51.750;5.888;2023-03-09T11:40:24;33.33;;;22.00;;
32319;SDS011;19080;51.750;5.888;2023-03-09T11:45:25;30.80;;;20.52;;
32319;SDS011;19080;51.750;5.888;2023-03-09T11:48:07;32.63;;;21.83;;
32319;SDS011;19080;51.750;5.888;2023-03-09T11:58:35;37.63;;;23.80;;
32319;SDS011;19080;51.750;5.888;2023-03-09T12:09:03;34.88;;;21.73;;
32319;SDS011;19080;51.750;5.888;2023-03-09T12:11:43;34.58;;;23.30;;
32319;SDS011;19080;51.750;5.888;2023-03-09T12:14:33;26.73;;;17.73;;
32319;SDS011;19080;51.750;5.888;2023-03-09T12:17:15;35.30;;;22.52;;
32319;SDS011;19080;51.750;5.888;2023-03-09T12:19:48;32.58;;;21.20;;
32319;SDS011;19080;51.750;5.888;2023-03-09T12:22:20;36.92;;;23.60;;
32319;SDS011;19080;51.750;5.888;2023-03-09T12:25:01;34.47;;;22.17;;
32319;SDS011;19080;51.750;5.888;2023-03-09T12:27:30;36.83;;;23.30;;
32319;SDS011;19080;51.750;5.888;2023-03-09T12:35:00;40.40;;;23.48;;
32319;SDS011;19080;51.750;5.888;2023-03-09T12:40:00;41.38;;;25.02;;
32319;SDS011;19080;51.750;5.888;2023-03-09T12:45:03;40.33;;;24.63;;
32319;SDS011;19080;51.750;5.888;2023-03-09T12:55:47;40.85;;;23.75;;
32319;SDS011;19080;51.750;5.888;2023-03-09T13:03:42;37.17;;;23.40;;
32319;SDS011;19080;51.750;5.888;2023-03-09T13:09:33;40.70;;;23.83;;
32319;SDS011;19080;51.750;5.888;2023-03-09T13:12:01;40.00;;;23.42;;
32319;SDS011;19080;51.750;5.888;2023-03-09T13:29:37;39.78;;;23.55;;
32319;SDS011;19080;51.750;5.888;2023-03-09T13:32:29;33.45;;;21.55;;
32319;SDS011;19080;51.750;5.888;2023-03-09T13:34:56;39.23;;;22.23;;
32319;SDS011;19080;51.750;5.888;2023-03-09T13:37:27;36.28;;;21.75;;
32319;SDS011;19080;51.750;5.888;2023-03-09T13:39:56;34.72;;;21.95;;
32319;SDS011;19080;51.750;5.888;2023-03-09T13:42:23;35.55;;;22.27;;
32319;SDS011;19080;51.750;5.888;2023-03-09T13:44:50;35.20;;;21.73;;
32319;SDS011;19080;51.750;5.888;2023-03-09T13:47:26;32.72;;;20.63;;
32319;SDS011;19080;51.750;5.888;2023-03-09T13:49:55;38.30;;;21.65;;
32319;SDS011;19080;51.750;5.888;2023-03-09T13:52:23;38.42;;;22.27;;
32319;SDS011;19080;51.750;5.888;2023-03-09T13:54:50;32.58;;;20.55;;
32319;SDS011;19080;51.750;5.888;2023-03-09T13:57:33;33.70;;;20.38;;
32319;SDS011;19080;51.750;5.888;2023-03-09T14:00:16;34.38;;;20.92;;
32319;SDS011;19080;51.750;5.888;2023-03-09T14:02:45;37.90;;;23.50;;
32319;SDS011;19080;51.750;5.888;2023-03-09T14:08:01;33.92;;;20.90;;
32319;SDS011;19080;51.750;5.888;2023-03-09T14:10:32;36.60;;;21.15;;
32319;SDS011;19080;51.750;5.888;2023-03-09T14:13:02;36.83;;;22.67;;
32319;SDS011;19080;51.750;5.888;2023-03-09T14:15:30;41.97;;;23.73;;
32319;SDS011;19080;51.750;5.888;2023-03-09T14:17:57;44.25;;;24.02;;
32319;SDS011;19080;51.750;5.888;2023-03-09T14:20:28;41.70;;;24.38;;
32319;SDS011;19080;51.750;5.888;2023-03-09T14:23:16;44.80;;;24.90;;
32319;SDS011;19080;51.750;5.888;2023-03-09T14:25:57;42.97;;;24.42;;
32319;SDS011;19080;51.750;5.888;2023-03-09T14:28:25;44.47;;;24.42;;
32319;SDS011;19080;51.750;5.888;2023-03-09T14:30:53;43.10;;;24.27;;
32319;SDS011;19080;51.750;5.888;2023-03-09T14:33:24;41.40;;;22.58;;
32319;SDS011;19080;51.750;5.888;2023-03-09T14:38:56;37.55;;;22.17;;
32319;SDS011;19080;51.750;5.888;2023-03-09T14:41:29;40.88;;;23.65;;
32319;SDS011;19080;51.750;5.888;2023-03-09T14:43:57;41.90;;;25.08;;
32319;SDS011;19080;51.750;5.888;2023-03-09T14:46:24;36.25;;;21.48;;
32319;SDS011;19080;51.750;5.888;2023-03-09T14:48:57;39.55;;;21.90;;
32319;SDS011;19080;51.750;5.888;2023-03-09T14:51:26;38.08;;;20.27;;
32319;SDS011;19080;51.750;5.888;2023-03-09T14:53:57;33.30;;;20.33;;
32319;SDS011;19080;51.750;5.888;2023-03-09T14:56:26;33.17;;;20.08;;
32319;SDS011;19080;51.750;5.888;2023-03-09T14:58:54;31.92;;;19.17;;
32319;SDS011;19080;51.750;5.888;2023-03-09T15:01:21;34.65;;;20.05;;
32319;SDS011;19080;51.750;5.888;2023-03-09T15:03:49;32.47;;;19.27;;
32319;SDS011;19080;51.750;5.888;2023-03-09T15:06:15;34.10;;;20.02;;
32319;SDS011;19080;51.750;5.888;2023-03-09T15:08:42;29.33;;;18.02;;
32319;SDS011;19080;51.750;5.888;2023-03-09T15:11:09;31.10;;;18.92;;
32319;SDS011;19080;51.750;5.888;2023-03-09T15:13:36;33.45;;;21.02;;
32319;SDS011;19080;51.750;5.888;2023-03-09T15:16:04;30.13;;;19.35;;
32319;SDS011;19080;51.750;5.888;2023-03-09T15:18:31;31.27;;;18.23;;
32319;SDS011;19080;51.750;5.888;2023-03-09T15:20:58;30.38;;;17.63;;
32319;SDS011;19080;51.750;5.888;2023-03-09T15:23:24;32.75;;;18.20;;
32319;SDS011;19080;51.750;5.888;2023-03-09T15:25:51;30.92;;;18.20;;
32319;SDS011;19080;51.750;5.888;2023-03-09T15:28:17;30.92;;;18.88;;
32319;SDS011;19080;51.750;5.888;2023-03-09T15:30:44;31.63;;;19.05;;
32319;SDS011;19080;51.750;5.888;2023-03-09T15:33:11;35.97;;;19.83;;
32319;SDS011;19080;51.750;5.888;2023-03-09T15:35:39;32.00;;;20.30;;
32319;SDS011;19080;51.750;5.888;2023-03-09T15:38:07;32.17;;;19.45;;
32319;SDS011;19080;51.750;5.888;2023-03-09T15:40:34;33.78;;;19.80;;
32319;SDS011;19080;51.750;5.888;2023-03-09T15:43:01;39.88;;;21.70;;
32319;SDS011;19080;51.750;5.888;2023-03-09T15:45:28;34.10;;;20.48;;
32319;SDS011;19080;51.750;5.888;2023-03-09T15:47:54;35.03;;;21.25;;
32319;SDS011;19080;51.750;5.888;2023-03-09T15:50:21;34.63;;;19.85;;
32319;SDS011;19080;51.750;5.888;2023-03-09T15:52:48;33.70;;;20.45;;
32319;SDS011;19080;51.750;5.888;2023-03-09T15:55:15;32.00;;;18.70;;
32319;SDS011;19080;51.750;5.888;2023-03-09T15:57:42;28.38;;;17.30;;
32319;SDS011;19080;51.750;5.888;2023-03-09T16:00:09;27.48;;;17.02;;
32319;SDS011;19080;51.750;5.888;2023-03-09T16:02:36;28.80;;;17.40;;
32319;SDS011;19080;51.750;5.888;2023-03-09T16:05:03;27.20;;;17.15;;
32319;SDS011;19080;51.750;5.888;2023-03-09T16:07:30;26.55;;;16.70;;
32319;SDS011;19080;51.750;5.888;2023-03-09T16:09:56;27.25;;;17.35;;
32319;SDS011;19080;51.750;5.888;2023-03-09T16:12:23;30.00;;;18.33;;